Time;durP1;ratioP1;P1;durP2;ratioP2;P2;SDS_P1;SDS_P2;PMS_P1;PMS_P2;Temp;Humidity;BMP_temperature;BMP_pressure;BME280_temperature;BME280_humidity;BME280_pressure;Samples;Min_cycle;Max_cycle;Signal;HPM_P1;HPM_P2
2023/04/13 00:03:32;;;;;;;7.05;3.10;;;;;;;11.11;66.56;101022.28;12796089;22;98861;-84
2023/04/13 00:08:37;;;;;;;7.32;3.05;;;;;;;10.85;66.42;101016.88;12795307;22;98992;-84
2023/04/13 00:13:41;;;;;;;9.48;3.42;;;;;;;10.74;66.25;101030.34;12795088;22;98961;-84
2023/04/13 00:18:45;;;;;;;9.50;3.50;;;;;;;10.84;65.79;101028.28;12793600;22;99285;-84
2023/04/13 00:23:49;;;;;;;12.48;3.53;;;;;;;10.87;65.76;101020.34;12793602;22;99576;-84
2023/04/13 00:28:53;;;;;;;6.97;3.00;;;;;;;10.74;66.19;101024.19;12794732;22;99171;-84
2023/04/13 00:33:56;;;;;;;7.68;2.80;;;;;;;10.71;66.46;101017.28;12794673;22;97966;-84
2023/04/13 00:39:01;;;;;;;6.68;3.00;;;;;;;10.82;65.53;101024.84;12794673;22;98814;-84
2023/04/13 00:44:04;;;;;;;7.43;3.15;;;;;;;10.55;65.90;101020.34;12794357;22;98015;-84
2023/04/13 00:49:08;;;;;;;6.55;3.17;;;;;;;10.20;66.76;101032.69;12794453;22;99266;-84
2023/04/13 00:54:14;;;;;;;6.45;3.00;;;;;;;10.09;67.65;101034.72;12794141;22;98042;-84
2023/04/13 00:59:18;;;;;;;10.13;3.67;;;;;;;9.99;68.19;101048.13;12795090;22;98621;-84
2023/04/13 01:04:22;;;;;;;10.63;3.37;;;;;;;10.08;67.71;101055.78;12794681;22;98939;-84
2023/04/13 01:09:34;;;;;;;9.43;3.23;;;;;;;10.15;68.35;101050.34;12793316;22;99146;-84
2023/04/13 01:14:44;;;;;;;8.35;2.97;;;;;;;10.22;68.37;101049.28;12794453;22;98865;-84
2023/04/13 01:19:52;;;;;;;7.97;2.88;;;;;;;10.37;67.67;101040.13;12794589;22;99142;-84
2023/04/13 01:25:25;;;;;;;8.23;3.20;;;;;;;10.60;67.93;101045.66;12794026;22;99158;-84
2023/04/13 01:30:31;;;;;;;11.00;3.45;;;;;;;10.77;67.60;101046.03;12794674;22;99173;-84
2023/04/13 01:35:34;;;;;;;11.93;3.15;;;;;;;10.70;67.25;101039.22;12794102;22;99151;-84
2023/04/13 01:40:40;;;;;;;8.60;2.92;;;;;;;10.78;68.23;101031.13;12793810;22;99442;-84
2023/04/13 01:45:50;;;;;;;9.52;3.60;;;;;;;10.86;68.20;101031.75;12794824;22;99257;-84
2023/04/13 01:50:57;;;;;;;6.05;2.60;;;;;;;10.85;67.56;101024.78;12793793;22;98723;-84
2023/04/13 01:56:03;;;;;;;9.10;2.88;;;;;;;10.68;68.66;101012.06;12793403;22;99010;-84
2023/04/13 02:01:09;;;;;;;7.38;2.80;;;;;;;10.64;67.99;101007.81;12793007;22;97867;-83
2023/04/13 02:06:12;;;;;;;6.82;2.70;;;;;;;10.63;67.99;101011.34;12793800;22;98968;-84
2023/04/13 02:11:16;;;;;;;5.47;2.80;;;;;;;10.54;68.43;101008.94;12793703;22;99366;-83
2023/04/13 02:16:20;;;;;;;9.30;2.90;;;;;;;10.40;67.92;101024.28;12793332;22;98976;-84
2023/04/13 02:21:24;;;;;;;7.18;2.33;;;;;;;9.93;69.16;101030.75;12792898;22;98903;-84
2023/04/13 02:26:27;;;;;;;7.63;2.83;;;;;;;9.93;69.04;101027.25;12793371;22;99007;-84
2023/04/13 02:31:32;;;;;;;5.10;2.70;;;;;;;9.92;68.39;101021.13;12793021;22;98816;-84
2023/04/13 02:36:36;;;;;;;8.10;2.70;;;;;;;9.75;68.67;101006.66;12794382;22;98645;-84
2023/04/13 02:41:41;;;;;;;9.57;3.03;;;;;;;9.54;69.38;101017.66;12792809;22;99124;-84
2023/04/13 02:46:46;;;;;;;6.25;2.83;;;;;;;9.48;69.80;101012.59;12794707;22;99095;-84
2023/04/13 02:51:50;;;;;;;6.95;2.63;;;;;;;9.14;70.50;101004.53;12794444;22;99020;-84
2023/04/13 02:56:54;;;;;;;6.13;2.60;;;;;;;9.17;70.28;101008.88;12795149;22;99286;-84
2023/04/13 03:02:00;;;;;;;6.78;2.75;;;;;;;9.23;70.10;101006.09;12795623;22;99199;-84
2023/04/13 03:07:08;;;;;;;6.63;2.58;;;;;;;9.42;69.79;101012.69;12795614;22;97865;-84
2023/04/13 03:12:11;;;;;;;9.43;3.08;;;;;;;9.39;70.14;101015.41;12795617;22;98858;-84
2023/04/13 03:17:16;;;;;;;9.15;3.25;;;;;;;9.41;69.92;101003.09;12795521;22;98946;-84
2023/04/13 03:22:22;;;;;;;8.65;3.28;;;;;;;9.66;70.15;101002.50;12795847;22;98991;-84
2023/04/13 03:27:25;;;;;;;10.30;3.35;;;;;;;9.91;69.11;101006.25;12797138;22;98202;-84
2023/04/13 03:32:31;;;;;;;10.57;3.88;;;;;;;9.92;69.63;101000.09;12795388;22;98999;-84
2023/04/13 03:37:41;;;;;;;7.45;3.40;;;;;;;9.43;71.15;101001.31;12794127;22;97743;-84
2023/04/13 03:42:45;;;;;;;7.18;3.17;;;;;;;9.81;70.47;101002.09;12793993;22;99174;-84
2023/04/13 03:47:49;;;;;;;9.68;3.25;;;;;;;9.48;71.23;101004.69;12795302;22;98958;-84
2023/04/13 03:52:53;;;;;;;10.10;3.15;;;;;;;9.75;70.22;101010.16;12795155;22;98194;-84
2023/04/13 03:57:56;;;;;;;11.32;4.20;;;;;;;9.63;70.54;101006.97;12794789;22;99007;-84
2023/04/13 04:03:01;;;;;;;6.05;3.65;;;;;;;9.86;69.87;100999.38;12794718;22;98980;-84
2023/04/13 04:08:05;;;;;;;7.10;3.30;;;;;;;9.88;69.73;100994.97;12795062;22;99107;-85
2023/04/13 04:13:08;;;;;;;8.70;3.10;;;;;;;9.62;70.52;100997.34;12795178;22;98898;-85
2023/04/13 04:18:13;;;;;;;7.20;2.90;;;;;;;9.49;70.30;100996.78;12796010;22;99028;-85
2023/04/13 04:23:16;;;;;;;8.57;3.40;;;;;;;9.48;71.57;101013.44;12794540;22;98912;-85
2023/04/13 04:28:21;;;;;;;;;;;;;;;9.40;71.19;101010.13;12795304;22;98192;-85
2023/04/13 04:33:26;;;;;;;8.40;3.45;;;;;;;9.28;71.99;101007.75;12792744;22;97814;-85
2023/04/13 04:38:31;;;;;;;8.20;3.63;;;;;;;9.51;71.75;101008.13;12795105;22;98816;-84
2023/04/13 04:43:36;;;;;;;9.85;3.45;;;;;;;9.74;70.73;101021.59;12794479;22;99554;-84
2023/04/13 04:48:41;;;;;;;12.02;3.92;;;;;;;9.77;70.38;101032.03;12794503;22;98837;-85
2023/04/13 04:53:44;;;;;;;8.48;4.00;;;;;;;9.72;70.93;101046.16;12775151;22;99126;-83
2023/04/13 04:58:47;;;;;;;10.52;3.63;;;;;;;9.76;71.18;101058.34;12858252;22;98931;-84
2023/04/13 05:03:52;;;;;;;11.13;4.28;;;;;;;9.70;71.08;101054.09;12857251;22;98905;-83
2023/04/13 05:08:55;;;;;;;13.65;4.68;;;;;;;9.80;71.35;101068.72;12857884;22;97798;-83
2023/04/13 05:14:00;;;;;;;8.45;3.85;;;;;;;9.81;70.71;101069.59;12858519;22;98919;-83
2023/04/13 05:19:07;;;;;;;20.83;4.67;;;;;;;9.89;70.37;101073.78;12857837;22;98900;-84
2023/04/13 05:24:10;;;;;;;8.05;3.28;;;;;;;10.01;70.14;101067.34;12856130;22;98784;-84
2023/04/13 05:29:14;;;;;;;7.35;3.30;;;;;;;10.08;68.91;101074.19;12857739;22;98923;-83
2023/04/13 05:34:18;;;;;;;15.02;4.53;;;;;;;9.91;69.68;101065.84;12857566;22;98961;-83
2023/04/13 05:39:23;;;;;;;11.63;4.22;;;;;;;9.76;70.01;101063.59;12858012;22;99113;-84
2023/04/13 05:44:26;;;;;;;9.33;3.73;;;;;;;9.79;70.66;101066.16;12857609;22;99093;-83
2023/04/13 05:49:31;;;;;;;11.13;3.42;;;;;;;9.82;70.24;101060.81;12857641;22;99021;-83
2023/04/13 05:54:35;;;;;;;9.90;3.40;;;;;;;9.53;70.58;101074.63;12856463;22;100006;-84
2023/04/13 05:59:38;;;;;;;10.90;3.47;;;;;;;9.35;70.86;101084.66;12858294;22;99052;-83
2023/04/13 06:04:43;;;;;;;7.63;3.30;;;;;;;8.94;72.09;101086.34;12856547;22;98501;-84
2023/04/13 06:09:47;;;;;;;5.85;2.80;;;;;;;9.12;71.31;101103.50;12857703;22;98971;-83
2023/04/13 06:14:50;;;;;;;8.20;2.88;;;;;;;9.20;71.39;101100.72;12855426;22;99278;-84
2023/04/13 06:19:55;;;;;;;5.28;2.60;;;;;;;9.38;71.40;101101.22;12857939;22;98892;-83
2023/04/13 06:24:58;;;;;;;9.07;2.75;;;;;;;9.47;70.75;101098.41;12858623;22;98999;-83
2023/04/13 06:30:02;;;;;;;12.20;3.95;;;;;;;9.42;72.04;101104.63;12859173;22;98831;-83
2023/04/13 06:35:08;;;;;;;8.65;3.22;;;;;;;9.51;72.26;101110.56;12859251;22;98848;-83
2023/04/13 06:40:14;;;;;;;11.18;3.35;;;;;;;9.93;71.10;101112.25;12859935;22;98827;-84
2023/04/13 06:45:19;;;;;;;7.43;3.10;;;;;;;9.88;70.22;101110.63;12859974;22;98646;-84
2023/04/13 06:50:24;;;;;;;11.68;4.18;;;;;;;9.58;71.45;101111.31;12860314;22;99223;-84
2023/04/13 06:55:27;;;;;;;8.95;4.25;;;;;;;9.64;71.81;101108.56;12858020;22;99175;-83
2023/04/13 07:00:30;;;;;;;6.88;3.95;;;;;;;9.53;72.41;101103.53;12859216;22;97853;-84
2023/04/13 07:05:35;;;;;;;15.95;5.03;;;;;;;9.70;71.63;101116.28;12857677;22;98918;-84
2023/04/13 07:10:39;;;;;;;8.55;4.97;;;;;;;9.65;72.15;101126.91;12859213;22;98844;-84
2023/04/13 07:15:43;;;;;;;11.20;4.13;;;;;;;9.81;72.12;101133.53;12858176;22;98141;-82
2023/04/13 07:20:48;;;;;;;5.93;3.70;;;;;;;9.59;72.24;101139.31;12866867;22;98841;-84
2023/04/13 07:25:51;;;;;;;7.10;3.30;;;;;;;9.59;72.46;101170.84;12875089;22;98986;-83
2023/04/13 07:30:54;;;;;;;5.60;2.80;;;;;;;9.34;73.23;101173.13;12864828;22;98759;-83
2023/04/13 07:35:59;;;;;;;5.07;2.78;;;;;;;9.27;73.30;101162.75;12863878;22;98142;-83
2023/04/13 07:41:02;;;;;;;5.93;2.75;;;;;;;9.61;73.20;101161.16;12861644;22;99189;-83
2023/04/13 07:46:10;;;;;;;6.03;3.50;;;;;;;9.93;71.90;101149.06;12860527;22;99076;-83
2023/04/13 07:51:18;;;;;;;24.08;9.60;;;;;;;10.14;71.68;101153.78;12861180;22;98779;-83
2023/04/13 07:56:22;;;;;;;10.50;4.68;;;;;;;10.06;71.73;101149.63;12867276;22;98912;-83
2023/04/13 08:01:25;;;;;;;7.82;3.00;;;;;;;10.52;70.51;101152.88;12863461;22;99137;-79
2023/04/13 08:06:30;;;;;;;15.25;7.18;;;;;;;10.79;70.14;101152.16;12858760;22;98963;-79
2023/04/13 08:11:33;;;;;;;;;;;;;;;11.32;69.03;101156.88;12858774;22;98962;-79
2023/04/13 08:16:37;;;;;;;7.15;3.25;;;;;;;12.32;66.55;101156.44;12858625;22;99052;-79
2023/04/13 08:21:42;;;;;;;9.85;3.53;;;;;;;14.70;61.73;101150.13;12859234;22;97847;-81
2023/04/13 08:26:45;;;;;;;;;;;;;;;16.16;58.38;101139.94;12858311;22;99057;-81
2023/04/13 08:31:48;;;;;;;7.13;3.53;;;;;;;17.03;57.29;101140.81;12859363;22;99185;-81
2023/04/13 08:36:54;;;;;;;7.47;3.37;;;;;;;18.74;52.08;101135.66;12857959;22;99164;-80
2023/04/13 08:41:57;;;;;;;6.55;2.70;;;;;;;19.64;49.75;101139.03;12857753;22;98890;-81
2023/04/13 08:47:01;;;;;;;10.20;4.17;;;;;;;19.92;49.82;101129.19;12855888;22;97781;-81
2023/04/13 08:52:07;;;;;;;7.88;4.00;;;;;;;18.00;51.32;101147.91;12857661;22;99173;-81
2023/04/13 08:57:12;;;;;;;18.50;3.85;;;;;;;17.27;52.50;101146.66;12858109;22;98846;-80
2023/04/13 09:02:16;;;;;;;8.93;2.78;;;;;;;15.60;53.85;101158.50;12858113;22;99269;-81
2023/04/13 09:07:26;;;;;;;9.73;3.50;;;;;;;15.37;55.11;101169.31;12858494;22;98952;-79
2023/04/13 09:12:31;;;;;;;8.98;2.75;;;;;;;14.87;56.51;101179.41;12857732;22;99261;-78
2023/04/13 09:17:34;;;;;;;7.88;3.28;;;;;;;14.33;57.56;101185.22;12857571;22;99388;-80
2023/04/13 09:22:39;;;;;;;11.32;4.18;;;;;;;14.09;58.78;101182.69;12858701;22;98957;-80
2023/04/13 09:27:42;;;;;;;7.25;3.65;;;;;;;13.96;59.60;101181.41;12857462;22;98023;-80
2023/04/13 09:32:45;;;;;;;6.45;3.13;;;;;;;14.57;58.90;101176.28;12857712;22;98937;-81
2023/04/13 09:37:54;;;;;;;7.28;3.30;;;;;;;15.04;59.09;101176.94;12856592;22;98960;-84
2023/04/13 09:42:59;;;;;;;11.05;6.05;;;;;;;14.22;60.73;101179.50;12858390;22;98260;-82
2023/04/13 09:48:03;;;;;;;7.57;3.28;;;;;;;14.44;61.06;101190.06;12858297;22;99326;-82
2023/04/13 09:53:09;;;;;;;6.93;2.63;;;;;;;15.53;57.45;101197.72;12857130;22;99093;-81
2023/04/13 09:58:15;;;;;;;9.70;5.43;;;;;;;15.19;59.23;101202.78;12857636;22;99057;-82
2023/04/13 10:03:21;;;;;;;8.80;3.13;;;;;;;15.09;60.06;101211.19;12857382;22;98976;-85
2023/04/13 10:08:26;;;;;;;6.57;2.33;;;;;;;16.58;57.46;101209.59;12857356;22;98830;-85
2023/04/13 10:13:38;;;;;;;8.80;2.85;;;;;;;18.09;53.24;101218.47;12860237;22;98482;-88
2023/04/13 10:18:56;;;;;;;4.68;2.60;;;;;;;19.10;51.38;101207.28;12862046;22;99298;-88
2023/04/13 10:24:04;;;;;;;6.30;2.55;;;;;;;21.02;48.56;101209.19;12860058;22;98887;-87
2023/04/13 10:29:13;;;;;;;6.20;2.15;;;;;;;21.22;46.60;101209.63;12856566;22;98917;-88
2023/04/13 10:34:26;;;;;;;5.13;2.83;;;;;;;21.30;44.47;101206.41;12858142;22;98909;-87
2023/04/13 10:39:34;;;;;;;5.57;2.53;;;;;;;21.41;43.79;101199.34;12858640;22;99520;-91
2023/04/13 10:44:43;;;;;;;6.68;2.50;;;;;;;20.28;43.98;101196.28;12857083;22;97790;-86
2023/04/13 10:49:48;;;;;;;5.20;1.65;;;;;;;19.34;46.13;101189.78;12856190;22;99187;-86
2023/04/13 10:54:56;;;;;;;5.07;2.00;;;;;;;18.56;47.37;101175.88;12855913;22;99195;-86
2023/04/13 11:00:00;;;;;;;6.75;2.38;;;;;;;17.81;49.54;101181.81;12856153;22;99321;-86
2023/04/13 11:05:04;;;;;;;7.30;2.53;;;;;;;17.19;50.85;101183.44;12857970;22;98991;-85
2023/04/13 11:10:13;;;;;;;6.03;2.60;;;;;;;16.25;51.81;101193.47;12859036;22;96862;-85
2023/04/13 11:15:21;;;;;;;6.43;2.30;;;;;;;15.17;57.05;101199.31;12858707;22;98821;-84
2023/04/13 11:20:32;;;;;;;8.32;3.58;;;;;;;15.31;58.13;101201.41;12857080;22;99151;-84
2023/04/13 11:25:36;;;;;;;10.13;3.60;;;;;;;15.33;58.53;101199.53;12858033;22;97917;-85
2023/04/13 11:30:40;;;;;;;;;;;;;;;15.15;60.23;101193.22;12859487;22;99095;-85
2023/04/13 11:35:45;;;;;;;8.10;3.40;;;;;;;15.26;58.68;101193.66;12858727;22;99064;-84
2023/04/13 11:40:53;;;;;;;10.18;4.15;;;;;;;15.29;59.53;101198.81;12858679;22;99456;-84
2023/04/13 11:46:23;;;;;;;7.33;3.37;;;;;;;15.23;60.05;101192.91;12858631;22;99246;-84
2023/04/13 11:51:28;;;;;;;7.63;3.65;;;;;;;16.09;57.57;101189.81;12857779;22;99056;-84
2023/04/13 11:56:33;;;;;;;6.90;3.50;;;;;;;18.48;52.90;101178.09;12859309;22;98886;-86
2023/04/13 12:01:36;;;;;;;;;;;;;;;19.48;51.98;101170.28;12859410;22;97547;-87
2023/04/13 12:06:51;;;;;;;6.70;3.27;;;;;;;19.50;49.77;101158.56;12858708;22;98980;-85
2023/04/13 12:11:57;;;;;;;9.85;4.55;;;;;;;19.01;50.98;101149.13;12857030;22;99012;-86
2023/04/13 12:17:20;;;;;;;9.27;3.17;;;;;;;18.90;51.02;101146.28;12857156;22;100396;-86
2023/04/13 12:22:37;;;;;;;8.23;2.85;;;;;;;19.77;49.95;101143.50;12858040;22;98643;-86
2023/04/13 12:27:55;;;;;;;6.60;2.70;;;;;;;19.54;47.84;101122.75;12858361;22;99137;-86
2023/04/13 12:32:59;;;;;;;5.13;2.20;;;;;;;19.88;47.75;101121.44;12858126;22;97784;-87
2023/04/13 12:38:04;;;;;;;6.43;2.50;;;;;;;18.49;49.50;101118.53;12858272;22;98270;-86
2023/04/13 12:43:09;;;;;;;8.35;2.65;;;;;;;17.44;51.69;101123.53;12858598;22;98281;-85
2023/04/13 12:48:13;;;;;;;6.57;2.88;;;;;;;16.98;52.97;101140.22;12859140;22;98888;-85
2023/04/13 12:53:19;;;;;;;7.20;2.40;;;;;;;16.82;53.61;101131.28;12857428;22;98916;-85
2023/04/13 12:58:24;;;;;;;11.52;2.83;;;;;;;17.48;53.28;101135.78;12858196;22;99259;-86
2023/04/13 13:03:27;;;;;;;;;;;;;;;17.76;52.05;101127.97;12857287;22;98809;-86
2023/04/13 13:08:30;;;;;;;5.07;1.90;;;;;;;18.08;50.96;101137.72;12858161;22;99213;-85
2023/04/13 13:13:38;;;;;;;5.32;1.60;;;;;;;17.33;51.73;101141.03;12857227;22;98156;-85
2023/04/13 13:18:42;;;;;;;5.53;1.80;;;;;;;16.92;53.10;101140.50;12857860;22;98515;-85
2023/04/13 13:23:54;;;;;;;7.88;2.17;;;;;;;17.13;52.79;101127.91;12857274;22;98827;-85
2023/04/13 13:29:02;;;;;;;6.30;2.40;;;;;;;16.88;53.19;101118.53;12857613;22;98832;-85
2023/04/13 13:34:07;;;;;;;8.02;2.00;;;;;;;17.46;52.12;101104.81;12857372;22;98921;-85
2023/04/13 13:39:11;;;;;;;4.55;2.15;;;;;;;18.07;51.37;101095.19;12858432;22;99035;-86
2023/04/13 13:44:17;;;;;;;6.70;2.20;;;;;;;17.75;50.60;101085.47;12857450;22;98993;-85
2023/04/13 13:49:21;;;;;;;6.15;1.90;;;;;;;17.46;50.87;101083.53;12857208;22;98442;-85
2023/04/13 13:54:25;;;;;;;6.37;1.90;;;;;;;17.34;50.74;101082.41;12855616;22;98999;-85
2023/04/13 13:59:30;;;;;;;4.65;1.70;;;;;;;17.64;50.57;101072.75;12857366;22;98999;-86
2023/04/13 14:04:35;;;;;;;6.78;1.67;;;;;;;17.58;50.31;101080.22;12857390;22;98894;-85
2023/04/13 14:09:39;;;;;;;4.90;1.50;;;;;;;18.04;49.22;101061.56;12857756;22;98966;-86
2023/04/13 14:14:45;;;;;;;4.63;1.90;;;;;;;18.13;48.73;101052.19;12856662;22;98888;-86
2023/04/13 14:19:49;;;;;;;5.53;1.85;;;;;;;17.68;48.90;101060.13;12857105;22;99015;-85
2023/04/13 14:24:53;;;;;;;4.68;1.70;;;;;;;17.22;50.42;101060.91;12856415;22;99022;-85
2023/04/13 14:29:58;;;;;;;5.00;1.67;;;;;;;17.19;50.36;101061.94;12857582;22;99162;-85
2023/04/13 14:35:01;;;;;;;5.78;1.88;;;;;;;17.32;51.03;101064.78;12856629;22;99157;-85
2023/04/13 14:40:13;;;;;;;4.03;1.75;;;;;;;17.53;50.06;101055.66;12857508;22;99218;-85
2023/04/13 14:45:18;;;;;;;5.53;2.28;;;;;;;17.44;50.29;101057.00;12858388;22;98442;-85
2023/04/13 14:50:21;;;;;;;4.68;1.88;;;;;;;17.04;49.71;101047.66;12859104;22;99430;-85
2023/04/13 14:55:24;;;;;;;5.53;1.55;;;;;;;17.38;49.34;101038.69;12858560;22;98938;-85
2023/04/13 15:00:38;;;;;;;5.80;1.55;;;;;;;17.59;48.88;101040.22;12859453;22;99064;-85
2023/04/13 15:05:43;;;;;;;7.03;2.53;;;;;;;17.48;49.24;101057.72;12859132;22;99252;-84
2023/04/13 15:10:47;;;;;;;6.50;3.10;;;;;;;17.60;48.30;101039.28;12858844;22;99236;-85
2023/04/13 15:15:53;;;;;;;7.28;2.20;;;;;;;17.61;47.49;101046.31;12858620;22;99246;-85
2023/04/13 15:20:56;;;;;;;5.50;1.92;;;;;;;17.83;47.59;101041.50;12859322;22;97774;-86
2023/04/13 15:26:00;;;;;;;6.35;1.80;;;;;;;17.67;47.64;101042.47;12858728;22;99039;-84
2023/04/13 15:31:05;;;;;;;5.83;1.90;;;;;;;17.43;47.52;101033.97;12858821;22;99296;-84
2023/04/13 15:36:12;;;;;;;;;;;;;;;17.67;48.10;101030.00;12857935;22;98961;-85
2023/04/13 15:41:15;;;;;;;6.03;1.73;;;;;;;17.82;48.03;101021.16;12859383;22;99116;-84
2023/04/13 15:46:20;;;;;;;5.85;2.05;;;;;;;17.40;48.53;101028.00;12858403;22;99095;-84
2023/04/13 15:51:23;;;;;;;8.25;2.75;;;;;;;17.43;49.50;101041.97;12858513;22;98919;-84
2023/04/13 15:56:27;;;;;;;6.25;2.10;;;;;;;17.34;50.22;101047.81;12858423;22;99009;-85
2023/04/13 16:01:45;;;;;;;2.30;1.40;;;;;;;17.28;48.93;101044.59;12859060;22;98878;-83
2023/04/13 16:06:50;;;;;;;4.93;1.35;;;;;;;17.19;49.82;101024.69;12858735;22;99858;-84
2023/04/13 16:12:16;;;;;;;4.03;1.90;;;;;;;17.27;50.42;101033.13;12858816;22;100849;-84
2023/04/13 16:17:29;;;;;;;5.18;1.67;;;;;;;17.52;50.00;101022.03;12858389;22;98903;-84
2023/04/13 16:22:33;;;;;;;9.27;1.70;;;;;;;17.35;49.85;101017.59;12857868;22;99363;-84
2023/04/13 16:27:38;;;;;;;7.85;2.13;;;;;;;17.25;49.97;101012.88;12857176;22;99378;-83
2023/04/13 16:32:46;;;;;;;6.05;1.67;;;;;;;17.04;50.02;101023.75;12858533;22;98633;-84
2023/04/13 16:37:51;;;;;;;6.25;2.55;;;;;;;16.74;50.55;101025.34;12858278;22;98924;-83
2023/04/13 16:42:54;;;;;;;7.93;2.60;;;;;;;16.68;51.14;101017.72;12857587;22;98954;-83
2023/04/13 16:48:00;;;;;;;8.85;2.05;;;;;;;16.83;50.64;101016.91;12858479;22;99233;-83
2023/04/13 16:53:04;;;;;;;4.80;2.08;;;;;;;16.42;51.31;101012.03;12857417;22;98871;-84
2023/04/13 16:58:07;;;;;;;9.75;2.55;;;;;;;16.47;51.64;101017.97;12858047;22;98856;-84
2023/04/13 17:03:12;;;;;;;6.90;2.75;;;;;;;16.58;51.41;101031.56;12858527;22;99075;-83
2023/04/13 17:08:16;;;;;;;5.28;1.50;;;;;;;16.48;51.37;101044.44;12857815;22;98648;-83
2023/04/13 17:13:19;;;;;;;4.72;1.92;;;;;;;16.43;51.05;101043.00;12857047;22;98859;-83
2023/04/13 17:18:24;;;;;;;4.35;1.83;;;;;;;16.34;51.18;101040.75;12856636;22;99167;-83
2023/04/13 17:23:27;;;;;;;3.83;1.65;;;;;;;16.25;50.76;101025.28;12857302;22;98809;-83
2023/04/13 17:28:31;;;;;;;5.50;1.58;;;;;;;16.28;50.73;101014.50;12857713;22;99239;-83
2023/04/13 17:33:35;;;;;;;4.25;1.20;;;;;;;16.32;51.37;101026.69;12857221;22;99081;-83
2023/04/13 17:38:38;;;;;;;6.40;1.85;;;;;;;16.13;51.44;101031.22;12858016;22;98951;-83
2023/04/13 17:43:41;;;;;;;4.57;1.38;;;;;;;16.13;51.60;101039.19;12857353;22;99345;-83
2023/04/13 17:48:46;;;;;;;8.07;1.70;;;;;;;15.97;51.92;101043.53;12857149;22;99074;-83
2023/04/13 17:53:51;;;;;;;7.28;1.58;;;;;;;15.80;52.15;101042.53;12857715;22;98909;-83
2023/04/13 17:58:54;;;;;;;7.07;2.27;;;;;;;15.77;51.53;101044.47;12857489;22;99684;-83
2023/04/13 18:03:58;;;;;;;6.78;1.77;;;;;;;15.83;51.99;101031.78;12857562;22;98973;-83
2023/04/13 18:09:02;;;;;;;;;;;;;;;15.83;53.78;101020.31;12856261;22;99022;-83
2023/04/13 18:14:07;;;;;;;6.38;1.95;;;;;;;15.72;53.40;101034.09;12857228;22;99180;-83
2023/04/13 18:19:12;;;;;;;7.78;2.53;;;;;;;15.70;53.57;101020.03;12857208;22;98990;-83
2023/04/13 18:24:15;;;;;;;9.23;2.58;;;;;;;15.70;53.15;101029.81;12856626;22;99303;-82
2023/04/13 18:29:18;;;;;;;5.75;1.58;;;;;;;15.62;53.56;101038.13;12856889;22;99508;-83
2023/04/13 18:34:23;;;;;;;3.72;1.40;;;;;;;15.61;54.13;101044.34;12856768;22;99133;-83
2023/04/13 18:39:26;;;;;;;8.98;1.60;;;;;;;15.57;54.30;101058.72;12856725;22;98967;-83
2023/04/13 18:44:29;;;;;;;8.25;2.33;;;;;;;15.38;54.24;101044.59;12857663;22;98914;-83
2023/04/13 18:49:34;;;;;;;8.50;1.88;;;;;;;15.21;54.45;101041.84;12856429;22;98866;-82
2023/04/13 18:54:39;;;;;;;7.65;2.50;;;;;;;15.13;55.12;101057.22;12855403;22;98082;-83
2023/04/13 18:59:43;;;;;;;7.15;2.38;;;;;;;15.04;54.82;101075.34;12854920;22;98924;-83
2023/04/13 19:04:47;;;;;;;9.20;2.58;;;;;;;14.98;54.90;101070.28;12856824;22;98045;-83
2023/04/13 19:09:50;;;;;;;8.07;3.65;;;;;;;14.84;55.84;101062.97;12856032;22;98880;-83
2023/04/13 19:14:54;;;;;;;9.70;3.42;;;;;;;14.68;57.11;101064.56;12856074;22;98853;-83
2023/04/13 19:19:58;;;;;;;9.90;3.50;;;;;;;14.70;57.75;101055.63;12856004;22;98893;-83
2023/04/13 19:25:01;;;;;;;12.18;4.35;;;;;;;14.76;57.90;101051.84;12855401;22;99144;-83
2023/04/13 19:30:06;;;;;;;12.38;4.45;;;;;;;14.72;58.27;101053.78;12858460;22;98022;-83
2023/04/13 19:35:11;;;;;;;;;;;;;;;14.69;59.27;101088.34;12859656;22;98230;-83
2023/04/13 19:40:14;;;;;;;9.43;3.00;;;;;;;14.74;58.78;101086.38;12859197;22;98910;-83
2023/04/13 19:45:18;;;;;;;8.27;3.03;;;;;;;14.70;59.33;101078.59;12859117;22;98798;-83
2023/04/13 19:50:22;;;;;;;7.22;2.80;;;;;;;14.68;59.59;101078.66;12856999;22;98983;-82
2023/04/13 19:55:25;;;;;;;8.23;3.00;;;;;;;14.70;59.53;101086.53;12858635;22;97867;-82
2023/04/13 20:00:29;;;;;;;8.75;3.08;;;;;;;14.74;59.63;101088.16;12858190;22;99156;-82
2023/04/13 20:05:37;;;;;;;8.18;2.97;;;;;;;14.70;60.47;101082.13;12858499;22;99017;-82
2023/04/13 20:10:41;;;;;;;8.90;3.10;;;;;;;14.71;60.77;101083.81;12858472;22;98833;-83
2023/04/13 20:15:44;;;;;;;7.57;2.50;;;;;;;14.63;61.18;101077.13;12858530;22;98842;-83
2023/04/13 20:20:50;;;;;;;9.32;2.72;;;;;;;14.45;61.98;101085.88;12858313;22;99391;-82
2023/04/13 20:25:53;;;;;;;7.97;2.13;;;;;;;14.23;62.57;101095.66;12859020;22;99205;-83
2023/04/13 20:30:56;;;;;;;8.48;2.75;;;;;;;14.10;62.81;101103.22;12858176;22;97862;-82
2023/04/13 20:36:02;;;;;;;8.35;3.83;;;;;;;14.04;63.25;101114.03;12858412;22;98911;-82
2023/04/13 20:41:05;;;;;;;12.27;3.95;;;;;;;13.96;63.25;101118.75;12856312;22;99098;-82
2023/04/13 20:46:08;;;;;;;8.00;3.40;;;;;;;13.92;63.77;101140.97;12857760;22;99238;-82
2023/04/13 20:51:14;;;;;;;9.48;3.33;;;;;;;13.81;64.11;101153.75;12857825;22;98932;-82
2023/04/13 20:56:22;;;;;;;12.57;3.20;;;;;;;13.77;64.26;101153.91;12857313;22;99035;-82
2023/04/13 21:01:26;;;;;;;8.02;3.20;;;;;;;13.78;64.29;101156.50;12858110;22;99287;-82
2023/04/13 21:06:30;;;;;;;6.00;2.72;;;;;;;13.80;64.32;101151.16;12858012;22;98858;-82
2023/04/13 21:11:34;;;;;;;6.55;3.10;;;;;;;13.77;64.60;101138.06;12857759;22;99171;-82
2023/04/13 21:16:37;;;;;;;11.05;3.20;;;;;;;13.73;65.16;101133.81;12858919;22;99019;-82
2023/04/13 21:21:42;;;;;;;9.90;3.22;;;;;;;13.63;65.79;101125.34;12857890;22;98865;-82
2023/04/13 21:26:45;;;;;;;7.05;3.10;;;;;;;13.57;65.97;101118.50;12857931;22;98824;-82
2023/04/13 21:31:48;;;;;;;9.07;3.60;;;;;;;13.53;66.05;101127.50;12856551;22;98701;-82
2023/04/13 21:36:53;;;;;;;7.55;3.17;;;;;;;13.21;67.79;101126.94;12857583;22;98707;-82
2023/04/13 21:41:56;;;;;;;10.27;3.08;;;;;;;13.51;67.23;101109.97;12857345;22;97908;-82
2023/04/13 21:47:00;;;;;;;8.10;3.17;;;;;;;13.65;67.24;101102.38;12857755;22;98964;-82
2023/04/13 21:52:05;;;;;;;7.50;3.25;;;;;;;13.74;67.50;101101.13;12856331;22;98884;-82
2023/04/13 21:57:09;;;;;;;9.20;3.70;;;;;;;13.87;67.31;101073.25;12857619;22;99143;-82
2023/04/13 22:02:12;;;;;;;6.97;2.78;;;;;;;13.96;67.40;101089.66;12857114;22;98963;-82
2023/04/13 22:07:17;;;;;;;10.55;3.47;;;;;;;14.00;66.96;101096.56;12858456;22;99264;-82
2023/04/13 22:12:27;;;;;;;10.02;3.78;;;;;;;13.98;66.83;101094.88;12857569;22;98902;-82
2023/04/13 22:17:31;;;;;;;7.53;3.55;;;;;;;13.84;67.11;101091.91;12857351;22;99350;-83
2023/04/13 22:22:36;;;;;;;7.40;3.53;;;;;;;13.67;67.68;101100.53;12855609;22;99019;-82
2023/04/13 22:27:39;;;;;;;9.70;3.53;;;;;;;13.66;68.09;101109.38;12857121;22;98929;-82
2023/04/13 22:32:42;;;;;;;7.32;3.40;;;;;;;13.60;68.46;101097.25;12855567;22;97811;-83
2023/04/13 22:37:47;;;;;;;9.45;3.25;;;;;;;13.44;69.31;101088.19;12856859;22;99379;-83
2023/04/13 22:42:52;;;;;;;6.43;3.30;;;;;;;13.45;69.42;101094.31;12856693;22;99162;-82
2023/04/13 22:47:56;;;;;;;5.78;3.05;;;;;;;13.50;69.29;101093.22;12856499;22;99450;-83
2023/04/13 22:53:00;;;;;;;6.13;3.33;;;;;;;13.43;69.49;101082.97;12855879;22;98925;-82
2023/04/13 22:58:03;;;;;;;8.40;3.60;;;;;;;13.48;69.69;101071.25;12857124;22;98158;-82
2023/04/13 23:03:07;;;;;;;7.57;3.28;;;;;;;13.58;68.92;101062.06;12857442;22;99092;-82
2023/04/13 23:08:12;;;;;;;8.63;3.55;;;;;;;13.68;69.02;101052.84;12858427;22;98184;-82
2023/04/13 23:13:15;;;;;;;;;;;;;;;13.53;69.60;101056.09;12858070;22;99033;-82
2023/04/13 23:18:18;;;;;;;7.63;3.63;;;;;;;13.41;69.22;101042.50;12859564;22;99245;-82
2023/04/13 23:23:23;;;;;;;8.60;3.58;;;;;;;13.11;69.91;101044.53;12858538;22;99190;-82
2023/04/13 23:28:27;;;;;;;8.98;3.17;;;;;;;12.85;71.12;101026.13;12858518;22;99119;-82